Time;durP1;ratioP1;P1;durP2;ratioP2;P2;SDS_P1;SDS_P2;PMS_P1;PMS_P2;Temp;Humidity;BMP_temperature;BMP_pressure;BME280_temperature;BME280_humidity;BME280_pressure;Samples;Min_cycle;Max_cycle;Signal;HPM_P1;HPM_P2
2022/07/25 00:00:15;;;;;;;7.63;4.22;;;25.80;63.50;;;;;;5094103;28;20191;-77
2022/07/25 00:02:41;;;;;;;4.80;4.30;;;25.80;63.70;;;;;;5095700;28;20200;-78
2022/07/25 00:05:09;;;;;;;4.60;4.10;;;25.80;63.80;;;;;;5095288;28;20188;-77
2022/07/25 00:07:37;;;;;;;4.95;3.90;;;25.80;64.10;;;;;;5093902;28;20194;-78
2022/07/25 00:10:03;;;;;;;4.55;3.60;;;25.80;64.60;;;;;;5093076;28;20257;-76
2022/07/25 00:12:29;;;;;;;5.57;3.80;;;25.90;64.70;;;;;;5088673;28;20203;-76
2022/07/25 00:14:55;;;;;;;4.32;3.90;;;25.90;64.10;;;;;;5090594;28;20437;-76
2022/07/25 00:17:23;;;;;;;3.70;3.33;;;25.90;64.20;;;;;;5094790;28;20203;-73
2022/07/25 00:19:50;;;;;;;3.70;3.38;;;25.90;64.30;;;;;;5092739;28;20191;-73
2022/07/25 00:22:16;;;;;;;4.38;3.47;;;25.90;64.90;;;;;;5094560;28;20247;-73
2022/07/25 00:24:42;;;;;;;3.78;3.40;;;25.90;64.30;;;;;;5092748;28;20350;-74
2022/07/25 00:27:07;;;;;;;4.05;3.58;;;25.90;64.40;;;;;;5093165;28;20199;-73
2022/07/25 00:29:36;;;;;;;4.20;3.38;;;25.90;64.50;;;;;;5092642;28;20176;-73
2022/07/25 00:32:01;;;;;;;4.70;3.50;;;25.90;64.70;;;;;;5090640;28;20254;-72
2022/07/25 00:34:27;;;;;;;4.30;3.50;;;25.90;64.70;;;;;;5125534;27;20514;-73
2022/07/25 00:36:55;;;;;;;3.60;3.30;;;25.80;64.80;;;;;;5093061;28;20263;-73
2022/07/25 00:39:21;;;;;;;4.20;3.80;;;25.80;65.30;;;;;;5096737;28;20171;-74
2022/07/25 00:41:46;;;;;;;4.38;3.60;;;25.80;65.20;;;;;;5095759;28;20191;-72
2022/07/25 00:44:31;;;;;;;3.90;3.47;;;25.70;65.30;;;;;;5094233;28;20282;-73
2022/07/25 00:47:03;;;;;;;4.18;3.45;;;25.70;66.30;;;;;;5130188;27;20179;-73
2022/07/25 00:49:29;;;;;;;6.00;3.15;;;25.60;65.90;;;;;;5092673;28;20176;-74
2022/07/25 00:51:56;;;;;;;3.47;3.15;;;25.60;65.90;;;;;;5093227;28;20268;-73
2022/07/25 00:54:22;;;;;;;4.32;3.55;;;25.50;66.10;;;;;;5092916;28;20179;-74
2022/07/25 00:56:53;;;;;;;4.35;3.75;;;25.50;66.50;;;;;;5093571;28;20180;-73
2022/07/25 00:59:21;;;;;;;4.10;3.65;;;25.40;66.70;;;;;;5092247;28;20211;-72
2022/07/25 01:01:49;;;;;;;4.00;3.60;;;25.40;66.90;;;;;;5091983;28;20366;-73
2022/07/25 01:04:16;;;;;;;8.00;3.58;;;25.30;67.40;;;;;;5092480;28;20183;-73
2022/07/25 01:06:42;;;;;;;3.90;3.50;;;25.30;67.20;;;;;;5093364;28;20210;-73
2022/07/25 01:09:08;;;;;;;4.53;3.50;;;25.30;67.50;;;;;;5093968;28;20188;-74
2022/07/25 01:11:34;;;;;;;4.10;3.70;;;25.20;67.50;;;;;;5093784;28;20168;-73
2022/07/25 01:14:02;;;;;;;3.97;3.35;;;25.20;67.60;;;;;;5089587;28;20200;-72
2022/07/25 01:16:28;;;;;;;4.00;3.60;;;25.20;67.70;;;;;;5096011;28;20224;-73
2022/07/25 01:18:54;;;;;;;4.43;3.60;;;25.10;67.70;;;;;;5093996;28;20169;-74
2022/07/25 01:21:23;;;;;;;3.55;3.22;;;25.10;67.80;;;;;;5094030;28;20187;-73
2022/07/25 01:23:49;;;;;;;4.00;3.42;;;25.10;68.10;;;;;;5089865;28;20263;-73
2022/07/25 01:26:16;;;;;;;3.58;3.28;;;25.00;68.00;;;;;;5092987;28;20317;-73
2022/07/25 01:28:42;;;;;;;4.00;3.60;;;25.00;68.20;;;;;;5091398;28;20188;-73
2022/07/25 01:31:08;;;;;;;4.40;4.00;;;25.00;68.10;;;;;;5093550;28;20186;-73
2022/07/25 01:33:33;;;;;;;4.95;3.85;;;25.00;68.40;;;;;;5091413;28;20196;-73
2022/07/25 01:35:59;;;;;;;4.22;3.75;;;24.90;68.30;;;;;;5093428;28;20176;-73
2022/07/25 01:38:29;;;;;;;5.00;3.25;;;24.90;68.30;;;;;;5092600;28;20179;-73
2022/07/25 01:40:55;;;;;;;3.92;3.22;;;24.90;68.30;;;;;;5092456;28;20272;-73
2022/07/25 01:43:21;;;;;;;5.78;3.70;;;24.90;69.10;;;;;;5092540;28;20249;-73
2022/07/25 01:45:46;;;;;;;4.30;3.58;;;24.90;68.50;;;;;;5091675;28;20290;-73
2022/07/25 01:48:12;;;;;;;4.10;3.70;;;24.90;68.50;;;;;;5092464;28;20229;-73
2022/07/25 01:50:40;;;;;;;4.22;3.72;;;24.90;68.50;;;;;;5092452;28;20249;-72
2022/07/25 01:53:06;;;;;;;3.70;3.40;;;24.90;68.70;;;;;;5091520;28;20204;-73
2022/07/25 01:55:31;;;;;;;4.07;3.40;;;24.90;68.50;;;;;;5091831;28;20196;-73
2022/07/25 01:57:59;;;;;;;3.78;3.47;;;25.00;68.80;;;;;;5092666;28;20172;-73
2022/07/25 02:00:25;;;;;;;4.20;3.50;;;25.00;68.70;;;;;;5090569;28;20172;-73
2022/07/25 02:03:28;;;;;;;5.53;3.70;;;24.90;68.70;;;;;;5092315;28;20184;-73
2022/07/25 02:05:39;;;;;;;3.60;3.30;;;24.90;68.90;;;;;;5091887;28;20187;-72
2022/07/25 02:08:04;;;;;;;3.95;3.55;;;24.90;69.00;;;;;;5090842;28;20184;-73
2022/07/25 02:10:30;;;;;;;3.53;3.22;;;24.90;69.00;;;;;;5095218;28;20237;-73
2022/07/25 02:12:56;;;;;;;3.80;3.40;;;24.80;69.00;;;;;;5096850;28;21061;-73
2022/07/25 02:15:22;;;;;;;5.28;3.50;;;24.80;69.30;;;;;;5097949;28;20179;-73
2022/07/25 02:17:50;;;;;;;4.00;3.60;;;24.80;69.40;;;;;;5096522;28;20203;-73
2022/07/25 02:20:17;;;;;;;4.57;3.33;;;24.70;69.40;;;;;;5097943;28;20172;-73
2022/07/25 02:22:43;;;;;;;3.55;3.25;;;24.70;69.50;;;;;;5097291;28;20298;-71
2022/07/25 02:25:11;;;;;;;4.50;3.75;;;24.70;69.70;;;;;;5095951;28;20256;-73
2022/07/25 02:27:37;;;;;;;5.15;3.72;;;24.60;69.80;;;;;;5095182;28;20180;-73
2022/07/25 02:30:04;;;;;;;3.92;3.53;;;24.60;69.90;;;;;;5099768;28;20274;-73
2022/07/25 02:32:29;;;;;;;4.60;3.58;;;24.50;70.10;;;;;;5096587;28;20203;-71
2022/07/25 02:34:57;;;;;;;8.05;3.63;;;24.50;70.10;;;;;;5095229;28;20183;-73
2022/07/25 02:37:23;;;;;;;3.72;3.42;;;24.50;70.50;;;;;;5095297;28;20171;-73
2022/07/25 02:39:53;;;;;;;3.67;3.22;;;24.50;70.50;;;;;;5097976;28;20192;-73
2022/07/25 02:42:21;;;;;;;4.50;3.50;;;24.40;70.80;;;;;;5098445;28;20168;-74
2022/07/25 02:44:47;;;;;;;4.78;3.80;;;24.50;70.60;;;;;;5094959;28;20200;-73
2022/07/25 02:47:12;;;;;;;3.70;3.40;;;24.50;71.30;;;;;;5095535;28;20412;-73
2022/07/25 02:49:38;;;;;;;4.05;3.65;;;24.50;70.70;;;;;;5098518;28;20183;-72
2022/07/25 02:52:04;;;;;;;4.60;3.58;;;24.50;70.70;;;;;;5095167;28;20290;-72
2022/07/25 02:54:29;;;;;;;4.43;3.88;;;24.50;70.60;;;;;;5093446;28;20173;-72
2022/07/25 02:57:00;;;;;;;5.00;4.50;;;24.50;70.70;;;;;;5095350;28;20195;-73
2022/07/25 02:59:25;;;;;;;4.97;4.30;;;24.60;70.80;;;;;;5096233;28;20443;-73
2022/07/25 03:01:51;;;;;;;5.82;4.22;;;24.60;70.70;;;;;;5096195;28;20175;-73
2022/07/25 03:04:16;;;;;;;4.90;4.32;;;24.60;70.70;;;;;;5097952;28;20184;-74
2022/07/25 03:06:42;;;;;;;5.93;4.30;;;24.60;70.70;;;;;;5095826;28;20180;-73
2022/07/25 03:09:10;;;;;;;4.72;4.03;;;24.60;70.80;;;;;;5095551;28;20210;-73
2022/07/25 03:11:35;;;;;;;4.00;3.60;;;24.70;70.90;;;;;;5098015;28;20217;-72
2022/07/25 03:14:02;;;;;;;5.20;3.92;;;24.70;70.90;;;;;;5098063;28;20215;-73
2022/07/25 03:16:31;;;;;;;6.13;4.13;;;24.70;71.00;;;;;;5096489;28;20176;-73
2022/07/25 03:18:58;;;;;;;6.18;3.83;;;24.70;70.90;;;;;;5095899;28;20184;-72
2022/07/25 03:21:29;;;;;;;4.18;3.72;;;24.70;71.00;;;;;;5111942;27;20241;-73
2022/07/25 03:23:54;;;;;;;3.97;3.50;;;24.60;71.10;;;;;;5098290;28;20192;-73
2022/07/25 03:26:20;;;;;;;3.78;3.38;;;24.60;71.10;;;;;;5098636;28;20171;-73
2022/07/25 03:28:46;;;;;;;4.38;3.97;;;24.50;71.10;;;;;;5096677;28;20265;-72
2022/07/25 03:31:11;;;;;;;3.90;3.50;;;24.50;71.20;;;;;;5094764;28;20184;-73
2022/07/25 03:33:39;;;;;;;3.80;3.50;;;24.40;71.20;;;;;;5093311;28;20294;-72
2022/07/25 03:36:05;;;;;;;3.55;3.25;;;24.40;71.40;;;;;;5095816;28;20352;-73
2022/07/25 03:38:31;;;;;;;5.38;4.13;;;24.30;71.40;;;;;;5095768;28;20176;-73
2022/07/25 03:40:57;;;;;;;4.47;3.75;;;24.30;71.70;;;;;;5095824;28;20183;-72
2022/07/25 03:43:22;;;;;;;5.07;3.50;;;24.30;71.70;;;;;;5093277;28;20253;-73
2022/07/25 03:45:48;;;;;;;3.85;3.45;;;24.30;71.90;;;;;;5095357;28;20731;-72
2022/07/25 03:48:13;;;;;;;4.10;3.70;;;24.20;71.90;;;;;;5094797;28;20752;-72
2022/07/25 03:50:39;;;;;;;4.85;3.70;;;24.20;72.00;;;;;;5096753;28;20190;-74
2022/07/25 03:53:05;;;;;;;4.15;3.45;;;24.20;72.20;;;;;;5093846;28;20206;-72
2022/07/25 03:55:30;;;;;;;4.50;3.92;;;24.20;72.20;;;;;;5093877;28;20192;-73
2022/07/25 03:57:56;;;;;;;4.88;4.30;;;24.30;72.40;;;;;;5093642;28;20275;-72
2022/07/25 04:00:28;;;;;;;6.15;3.67;;;24.30;72.50;;;;;;5089315;28;21585;-74
2022/07/25 04:02:56;;;;;;;4.40;3.70;;;24.30;72.60;;;;;;5098734;28;20218;-72
2022/07/25 04:05:22;;;;;;;5.32;3.97;;;24.30;72.50;;;;;;5092635;28;20188;-72
2022/07/25 04:07:50;;;;;;;4.15;3.75;;;24.40;72.60;;;;;;5094251;28;20244;-72
2022/07/25 04:10:16;;;;;;;4.22;3.83;;;24.40;72.80;;;;;;5089203;28;20184;-77
2022/07/25 04:12:44;;;;;;;4.10;3.67;;;24.40;72.70;;;;;;5093557;28;20210;-75
2022/07/25 04:15:11;;;;;;;3.55;3.22;;;24.40;72.90;;;;;;5091000;28;20207;-76
2022/07/25 04:17:36;;;;;;;3.90;3.50;;;24.40;72.80;;;;;;5098897;28;20187;-78
2022/07/25 04:20:02;;;;;;;4.50;3.60;;;24.50;72.90;;;;;;5094066;28;20176;-77
2022/07/25 04:22:28;;;;;;;4.80;3.60;;;24.50;72.90;;;;;;5096000;28;20180;-76
2022/07/25 04:24:53;;;;;;;6.30;3.58;;;24.40;72.90;;;;;;5094328;28;20241;-75
2022/07/25 04:27:19;;;;;;;4.50;3.60;;;24.50;73.00;;;;;;5094320;28;20220;-71
2022/07/25 04:29:47;;;;;;;4.00;3.60;;;24.50;73.00;;;;;;5094724;28;20237;-71
2022/07/25 04:32:13;;;;;;;4.05;3.60;;;24.50;73.10;;;;;;5096209;28;20286;-71
2022/07/25 04:34:39;;;;;;;4.13;3.72;;;24.50;73.10;;;;;;5099821;28;20226;-71
2022/07/25 04:37:04;;;;;;;4.47;3.63;;;24.50;73.20;;;;;;5094150;28;20211;-70
2022/07/25 04:39:30;;;;;;;4.10;3.47;;;24.50;73.20;;;;;;5086908;28;20177;-70
2022/07/25 04:41:58;;;;;;;4.13;3.75;;;24.60;73.30;;;;;;5092684;28;22182;-70
2022/07/25 04:44:23;;;;;;;3.75;3.40;;;24.60;73.40;;;;;;5092122;28;20168;-71
2022/07/25 04:46:51;;;;;;;3.83;3.28;;;24.60;73.40;;;;;;5090484;28;20211;-72
2022/07/25 04:49:17;;;;;;;3.58;3.28;;;24.60;73.40;;;;;;5093906;28;20271;-70
2022/07/25 04:51:45;;;;;;;5.53;3.47;;;24.70;73.70;;;;;;5092770;28;20279;-70
2022/07/25 04:54:13;;;;;;;4.10;3.70;;;24.70;73.70;;;;;;5093758;28;20203;-71
2022/07/25 04:56:38;;;;;;;4.70;3.58;;;24.70;73.70;;;;;;5091482;28;20177;-71
2022/07/25 04:59:06;;;;;;;4.05;3.58;;;24.80;73.90;;;;;;5093895;28;20337;-70
2022/07/25 05:01:34;;;;;;;4.22;3.40;;;24.80;73.90;;;;;;5095480;28;20198;-72
2022/07/25 05:04:02;;;;;;;4.30;3.58;;;24.80;73.80;;;;;;5095739;28;20176;-70
2022/07/25 05:06:28;;;;;;;4.53;3.30;;;24.90;74.00;;;;;;5094808;28;20180;-70
2022/07/25 05:08:54;;;;;;;3.80;3.35;;;24.90;74.00;;;;;;5091056;28;20194;-69
2022/07/25 05:11:19;;;;;;;3.83;3.42;;;24.90;74.00;;;;;;5093800;28;20184;-71
2022/07/25 05:13:45;;;;;;;6.10;3.58;;;25.00;74.20;;;;;;5093439;28;20210;-71
2022/07/25 05:16:13;;;;;;;3.75;3.35;;;25.00;74.20;;;;;;5093598;28;20184;-70
2022/07/25 05:18:38;;;;;;;4.30;3.30;;;25.10;74.30;;;;;;5094349;28;20195;-70
2022/07/25 05:21:10;;;;;;;3.63;3.28;;;25.10;74.20;;;;;;5093652;28;20252;-76
2022/07/25 05:23:35;;;;;;;3.75;3.45;;;25.20;74.50;;;;;;5092096;28;20180;-72
2022/07/25 05:26:01;;;;;;;4.20;3.80;;;25.30;74.50;;;;;;5092828;28;20280;-71
2022/07/25 05:28:26;;;;;;;4.00;3.60;;;25.30;74.50;;;;;;5091312;28;20279;-71
2022/07/25 05:30:52;;;;;;;5.22;3.60;;;25.40;74.60;;;;;;5094299;28;20179;-71
2022/07/25 05:33:20;;;;;;;3.72;3.42;;;25.40;74.50;;;;;;5091308;28;20231;-70
2022/07/25 05:35:48;;;;;;;3.90;3.50;;;25.40;74.70;;;;;;5092820;28;20209;-76
2022/07/25 05:38:13;;;;;;;4.07;3.67;;;25.50;74.90;;;;;;5093527;28;20179;-76
2022/07/25 05:40:39;;;;;;;4.90;3.80;;;25.60;75.00;;;;;;5096484;28;20176;-76
2022/07/25 05:43:07;;;;;;;4.20;3.80;;;25.60;75.20;;;;;;5095245;28;20179;-76
2022/07/25 05:45:33;;;;;;;4.22;3.38;;;25.70;75.20;;;;;;5094798;28;20176;-76
2022/07/25 05:47:59;;;;;;;5.05;3.90;;;25.70;75.00;;;;;;5094510;28;20184;-76
2022/07/25 05:50:24;;;;;;;7.07;4.30;;;25.80;75.10;;;;;;5092832;28;20175;-77
2022/07/25 05:52:50;;;;;;;4.25;3.70;;;25.80;75.40;;;;;;5099548;28;20187;-77
2022/07/25 05:55:16;;;;;;;4.88;3.90;;;25.90;75.60;;;;;;5097429;28;20184;-76
2022/07/25 05:57:42;;;;;;;4.55;3.95;;;26.00;75.60;;;;;;5096081;28;20184;-75
2022/07/25 06:00:08;;;;;;;4.30;3.90;;;26.00;75.60;;;;;;5093079;28;20172;-77
2022/07/25 06:02:36;;;;;;;4.03;3.63;;;26.00;75.70;;;;;;5093789;28;21051;-76
2022/07/25 06:05:02;;;;;;;3.95;3.55;;;26.10;75.70;;;;;;5094758;28;20176;-77
2022/07/25 06:07:27;;;;;;;4.47;4.05;;;26.10;75.90;;;;;;5127348;28;20183;-77
2022/07/25 06:09:57;;;;;;;5.15;3.83;;;26.20;76.20;;;;;;5093902;28;20188;-77
2022/07/25 06:12:25;;;;;;;4.60;3.42;;;26.20;76.20;;;;;;5090630;28;20195;-76
2022/07/25 06:14:54;;;;;;;4.10;3.53;;;26.30;76.40;;;;;;5093568;28;20188;-75
2022/07/25 06:17:20;;;;;;;5.20;3.67;;;26.30;76.40;;;;;;5094408;28;20374;-75
2022/07/25 06:19:46;;;;;;;6.20;3.75;;;26.40;76.60;;;;;;5095504;28;20274;-77
2022/07/25 06:22:12;;;;;;;3.88;3.47;;;26.40;76.50;;;;;;5094363;28;20259;-76
2022/07/25 06:24:38;;;;;;;4.10;3.70;;;26.40;76.50;;;;;;5093259;28;20199;-76
2022/07/25 06:27:04;;;;;;;4.28;3.70;;;26.40;76.60;;;;;;5094627;28;20176;-77
2022/07/25 06:29:29;;;;;;;5.78;3.35;;;26.50;76.60;;;;;;5093268;28;20233;-77
2022/07/25 06:31:55;;;;;;;5.10;3.78;;;26.50;76.90;;;;;;5096726;28;20207;-77
2022/07/25 06:34:20;;;;;;;3.97;3.58;;;26.50;76.90;;;;;;5098128;28;20231;-77
2022/07/25 06:36:46;;;;;;;5.18;3.70;;;26.60;77.00;;;;;;5094829;28;20218;-77
2022/07/25 06:39:14;;;;;;;5.53;3.85;;;26.60;76.90;;;;;;5093620;28;20229;-76
2022/07/25 06:41:44;;;;;;;4.20;3.67;;;26.70;77.30;;;;;;5094019;28;20176;-77
2022/07/25 06:44:12;;;;;;;5.97;4.03;;;26.80;77.50;;;;;;5092995;28;20259;-75
2022/07/25 06:46:38;;;;;;;3.90;3.50;;;26.90;77.60;;;;;;5097419;28;20172;-77
2022/07/25 06:49:03;;;;;;;5.80;3.80;;;27.00;77.90;;;;;;5095556;28;20187;-76
2022/07/25 06:51:29;;;;;;;4.20;3.80;;;27.10;78.10;;;;;;5128505;27;20172;-75
2022/07/25 06:53:57;;;;;;;4.13;3.55;;;27.20;78.00;;;;;;5093697;28;20218;-76
2022/07/25 06:56:25;;;;;;;3.90;3.60;;;27.30;78.00;;;;;;5103866;28;20167;-77
2022/07/25 06:58:52;;;;;;;3.97;3.63;;;27.40;77.70;;;;;;5099497;28;20172;-75
2022/07/25 07:01:19;;;;;;;4.47;4.07;;;27.60;77.40;;;;;;5099130;28;20207;-76
2022/07/25 07:03:47;;;;;;;4.85;4.18;;;27.80;77.00;;;;;;5101122;28;20185;-71
2022/07/25 07:06:13;;;;;;;4.43;4.03;;;27.90;76.90;;;;;;5100443;28;20168;-76
2022/07/25 07:08:38;;;;;;;5.55;4.00;;;28.10;76.40;;;;;;5098280;28;20299;-75
2022/07/25 07:11:07;;;;;;;4.45;4.05;;;28.20;75.60;;;;;;5132806;27;20175;-75
2022/07/25 07:13:33;;;;;;;4.15;3.75;;;28.40;75.60;;;;;;5133666;27;20200;-75
2022/07/25 07:16:04;;;;;;;4.28;3.88;;;28.50;75.30;;;;;;5096055;28;20279;-77
2022/07/25 07:18:30;;;;;;;4.80;3.95;;;28.70;75.00;;;;;;5097262;28;20270;-74
2022/07/25 07:20:55;;;;;;;4.50;4.10;;;28.80;74.50;;;;;;5100711;28;20207;-74
2022/07/25 07:23:21;;;;;;;4.30;3.88;;;28.90;74.40;;;;;;5096410;28;20196;-75
2022/07/25 07:25:47;;;;;;;3.95;3.65;;;28.90;74.00;;;;;;5098181;28;20183;-77
2022/07/25 07:28:13;;;;;;;4.20;3.80;;;29.00;73.90;;;;;;5106411;28;20210;-76
2022/07/25 07:30:41;;;;;;;4.68;4.28;;;29.10;73.80;;;;;;5100437;28;20252;-75
2022/07/25 07:33:06;;;;;;;4.65;4.15;;;29.10;73.20;;;;;;5097318;28;20196;-75
2022/07/25 07:35:32;;;;;;;4.65;4.00;;;29.20;73.30;;;;;;5096410;28;20317;-76
2022/07/25 07:37:58;;;;;;;4.53;3.60;;;29.20;73.50;;;;;;5096696;28;20180;-77
2022/07/25 07:40:25;;;;;;;4.38;3.97;;;29.30;73.50;;;;;;5099983;28;20176;-75
2022/07/25 07:42:51;;;;;;;3.72;3.42;;;29.30;73.40;;;;;;5097272;28;20183;-76
2022/07/25 07:45:21;;;;;;;4.15;3.83;;;29.40;73.40;;;;;;5099115;28;20199;-76
2022/07/25 07:47:48;;;;;;;3.92;3.63;;;29.40;73.30;;;;;;5099135;28;20175;-75
2022/07/25 07:50:18;;;;;;;4.75;3.85;;;29.50;73.50;;;;;;5096959;28;20191;-76
2022/07/25 07:52:45;;;;;;;4.95;3.53;;;29.60;73.10;;;;;;5098323;28;20200;-77
2022/07/25 07:58:00;;;;;;;4.15;3.75;;;29.70;73.30;;;;;;5097643;28;20280;-76
2022/07/25 08:00:29;;;;;;;5.57;3.88;;;29.70;73.10;;;;;;5098559;28;20172;-75
2022/07/25 08:02:56;;;;;;;4.32;4.00;;;29.80;73.40;;;;;;5098884;28;20221;-77
2022/07/25 08:05:25;;;;;;;5.05;4.40;;;29.80;73.20;;;;;;5099051;28;20188;-76
2022/07/25 08:07:52;;;;;;;6.22;4.40;;;29.90;73.40;;;;;;5099550;28;20296;-74
2022/07/25 08:10:23;;;;;;;4.90;4.30;;;30.00;73.40;;;;;;5099109;28;20207;-77
2022/07/25 08:12:52;;;;;;;4.07;3.78;;;30.10;73.20;;;;;;5099068;28;20223;-75
2022/07/25 08:15:19;;;;;;;4.72;3.88;;;30.10;73.00;;;;;;5094907;28;20176;-76
2022/07/25 08:17:46;;;;;;;4.43;4.03;;;30.20;72.50;;;;;;5094889;28;20195;-76
2022/07/25 08:20:15;;;;;;;3.90;3.60;;;30.20;72.10;;;;;;5097696;28;20207;-76
2022/07/25 08:22:52;;;;;;;4.93;4.07;;;30.20;71.70;;;;;;5098149;28;20192;-76
2022/07/25 08:25:22;;;;;;;4.65;4.20;;;30.20;71.30;;;;;;5099646;28;20215;-77
2022/07/25 08:27:48;;;;;;;3.97;3.58;;;30.20;71.20;;;;;;5096347;28;20195;-77
2022/07/25 08:30:15;;;;;;;4.45;4.05;;;30.20;71.20;;;;;;5096061;28;20187;-77
2022/07/25 08:32:50;;;;;;;4.38;3.97;;;30.20;71.00;;;;;;5096459;28;20192;-76
2022/07/25 08:35:20;;;;;;;4.38;3.63;;;30.30;70.30;;;;;;5097797;28;20197;-76
2022/07/25 08:37:47;;;;;;;4.30;3.90;;;30.30;70.90;;;;;;5096172;28;20214;-75
2022/07/25 08:40:17;;;;;;;4.15;3.75;;;30.30;70.50;;;;;;5103876;28;20190;-77
2022/07/25 08:42:43;;;;;;;3.95;3.58;;;30.30;70.70;;;;;;5132636;27;20183;-76
2022/07/25 08:45:13;;;;;;;3.88;3.58;;;30.30;70.50;;;;;;5100098;28;20207;-76
2022/07/25 08:47:43;;;;;;;3.97;3.58;;;30.30;70.00;;;;;;5095674;28;20191;-76
2022/07/25 08:50:13;;;;;;;4.30;3.90;;;30.40;70.00;;;;;;5095482;28;20209;-76
2022/07/25 08:52:44;;;;;;;6.47;3.88;;;30.40;69.80;;;;;;5099463;28;20231;-75
2022/07/25 08:55:15;;;;;;;4.25;3.80;;;30.40;69.80;;;;;;5094646;28;20192;-76
2022/07/25 08:57:45;;;;;;;3.75;3.45;;;30.40;69.30;;;;;;5096905;28;20199;-77
2022/07/25 09:00:14;;;;;;;3.80;3.50;;;30.50;69.80;;;;;;5094847;28;20195;-75
2022/07/25 09:02:42;;;;;;;3.95;3.55;;;30.50;69.50;;;;;;5094682;28;20259;-76
2022/07/25 09:05:08;;;;;;;3.50;3.20;;;30.50;69.50;;;;;;5095122;28;20214;-76
2022/07/25 09:07:39;;;;;;;3.83;3.42;;;30.60;69.60;;;;;;5095080;28;20414;-75
2022/07/25 09:10:11;;;;;;;5.35;3.72;;;30.60;70.10;;;;;;5096342;28;20256;-77
2022/07/25 09:12:37;;;;;;;4.28;3.88;;;30.70;69.00;;;;;;5094708;28;20203;-76
2022/07/25 09:15:04;;;;;;;5.00;3.50;;;30.70;68.80;;;;;;5094169;28;20256;-77
2022/07/25 09:17:31;;;;;;;4.15;3.75;;;30.80;68.30;;;;;;5097195;28;20239;-74
2022/07/25 09:19:57;;;;;;;4.18;3.78;;;30.80;68.00;;;;;;5095527;28;20168;-76
2022/07/25 09:22:23;;;;;;;5.13;3.58;;;30.80;67.60;;;;;;5094016;28;20224;-77
2022/07/25 09:24:48;;;;;;;4.18;3.75;;;30.90;67.30;;;;;;5097405;28;20203;-74
2022/07/25 09:27:16;;;;;;;5.30;4.10;;;30.90;67.00;;;;;;5095022;28;20182;-75
2022/07/25 09:29:45;;;;;;;4.32;3.92;;;31.00;66.90;;;;;;5097829;28;20185;-74
2022/07/25 09:32:17;;;;;;;4.10;3.70;;;31.00;66.30;;;;;;5098802;28;20204;-75
2022/07/25 09:34:48;;;;;;;4.18;3.78;;;31.10;66.20;;;;;;5096382;28;20167;-77
2022/07/25 09:37:16;;;;;;;5.15;3.80;;;31.20;66.10;;;;;;5098968;28;20195;-77
2022/07/25 09:39:49;;;;;;;4.35;3.95;;;31.30;66.20;;;;;;5095318;28;20221;-77
2022/07/25 09:42:16;;;;;;;4.90;4.10;;;31.30;66.10;;;;;;5097694;28;20214;-76
2022/07/25 09:45:10;;;;;;;4.63;4.10;;;31.40;65.70;;;;;;5096451;28;20877;-76
2022/07/25 09:47:50;;;;;;;5.60;4.00;;;31.50;65.30;;;;;;5094133;28;20176;-75
2022/07/25 09:50:17;;;;;;;4.47;4.07;;;31.50;65.30;;;;;;5096065;28;20175;-75
2022/07/25 09:52:44;;;;;;;4.72;4.30;;;31.60;64.80;;;;;;5133077;27;20206;-77
2022/07/25 09:55:10;;;;;;;4.35;3.95;;;31.60;65.00;;;;;;5095927;28;20170;-76
2022/07/25 09:57:39;;;;;;;4.60;4.20;;;31.60;64.60;;;;;;5093980;28;20266;-77
2022/07/25 10:00:13;;;;;;;4.32;3.72;;;31.70;64.70;;;;;;5096408;28;20217;-77
2022/07/25 10:02:56;;;;;;;5.75;3.78;;;31.70;65.00;;;;;;5099142;28;20403;-78
2022/07/25 10:06:01;;;;;;;4.25;3.85;;;31.80;64.80;;;;;;5098893;28;20207;-76
2022/07/25 10:08:28;;;;;;;4.43;4.03;;;31.80;64.40;;;;;;5094806;28;20178;-77
2022/07/25 10:10:54;;;;;;;4.82;4.10;;;31.80;64.30;;;;;;5094206;28;20184;-77
2022/07/25 10:13:33;;;;;;;5.32;3.97;;;31.80;64.20;;;;;;5096634;28;20195;-77
2022/07/25 10:16:00;;;;;;;4.00;3.50;;;31.80;63.00;;;;;;5093147;28;20268;-77
2022/07/25 10:18:27;;;;;;;3.65;3.35;;;31.80;63.40;;;;;;5097669;28;20179;-75
2022/07/25 10:21:12;;;;;;;3.92;3.55;;;31.70;63.30;;;;;;5099191;28;20167;-76
2022/07/25 10:23:40;;;;;;;5.80;3.97;;;31.70;63.00;;;;;;5093730;28;20266;-75
2022/07/25 10:26:08;;;;;;;4.28;3.88;;;31.60;62.90;;;;;;5093369;28;20195;-75
2022/07/25 10:28:45;;;;;;;4.22;3.72;;;31.50;62.60;;;;;;5098172;28;20175;-75
2022/07/25 10:31:20;;;;;;;3.90;3.50;;;31.40;62.60;;;;;;5098917;28;20206;-77
2022/07/25 10:34:07;;;;;;;4.50;3.65;;;31.30;62.70;;;;;;5104738;28;20213;-76
2022/07/25 10:36:43;;;;;;;5.95;3.45;;;31.20;62.80;;;;;;5099452;28;20229;-76
2022/07/25 10:39:10;;;;;;;4.18;3.78;;;31.10;63.00;;;;;;5097317;28;20203;-77
2022/07/25 10:41:40;;;;;;;7.32;4.18;;;31.00;63.30;;;;;;5102778;28;20207;-77
2022/07/25 10:44:14;;;;;;;6.15;4.25;;;30.90;64.40;;;;;;5098763;28;20207;-77
2022/07/25 10:46:44;;;;;;;4.85;4.07;;;30.80;66.40;;;;;;5102016;28;20204;-76
2022/07/25 10:49:25;;;;;;;4.13;3.72;;;30.70;65.70;;;;;;5099741;28;20179;-76
2022/07/25 10:51:55;;;;;;;4.20;3.80;;;30.50;67.10;;;;;;5097636;28;20175;-76
2022/07/25 10:54:22;;;;;;;5.30;4.07;;;30.30;66.60;;;;;;5096024;28;20180;-74
2022/07/25 10:56:58;;;;;;;4.72;3.92;;;30.20;66.70;;;;;;5098628;28;20187;-76
2022/07/25 10:59:35;;;;;;;5.25;4.20;;;30.10;68.40;;;;;;5096663;28;20211;-76
2022/07/25 11:02:03;;;;;;;4.80;3.88;;;30.00;67.90;;;;;;5100253;28;20577;-76
2022/07/25 11:04:29;;;;;;;7.07;4.60;;;30.00;68.20;;;;;;5099779;28;20180;-76
2022/07/25 11:07:13;;;;;;;5.43;4.10;;;29.90;68.50;;;;;;5098241;28;20207;-76
2022/07/25 11:09:42;;;;;;;4.75;4.30;;;29.80;69.40;;;;;;5097832;28;20196;-75
2022/07/25 11:12:15;;;;;;;4.20;3.80;;;29.70;69.20;;;;;;5097190;28;20192;-76
2022/07/25 11:14:41;;;;;;;8.20;4.18;;;29.70;69.50;;;;;;5095590;28;20178;-76
2022/07/25 11:17:13;;;;;;;5.45;4.20;;;29.60;70.10;;;;;;5096776;28;20187;-76
2022/07/25 11:19:40;;;;;;;7.78;4.10;;;29.60;70.90;;;;;;5097389;28;20208;-76
2022/07/25 11:22:07;;;;;;;6.22;4.07;;;29.60;70.50;;;;;;5098645;28;20563;-76
2022/07/25 11:24:43;;;;;;;7.07;4.50;;;29.60;70.60;;;;;;5095693;28;20179;-76
2022/07/25 11:27:22;;;;;;;5.82;3.97;;;29.60;70.90;;;;;;5097358;28;20238;-76
2022/07/25 11:29:51;;;;;;;4.28;3.88;;;29.60;70.80;;;;;;5096722;28;20248;-76
2022/07/25 11:32:17;;;;;;;4.82;3.65;;;29.60;70.90;;;;;;5096899;28;20196;-74
2022/07/25 11:34:55;;;;;;;6.28;3.92;;;29.70;71.10;;;;;;5096231;28;20240;-75
2022/07/25 11:37:23;;;;;;;4.47;4.07;;;29.70;71.20;;;;;;5097737;28;20199;-75
2022/07/25 11:39:49;;;;;;;4.80;3.80;;;29.80;71.00;;;;;;5096970;28;21986;-76
2022/07/25 11:42:21;;;;;;;4.22;3.83;;;29.90;71.10;;;;;;5096143;28;20180;-76
2022/07/25 11:44:50;;;;;;;4.50;3.90;;;30.00;71.70;;;;;;5100570;28;20225;-75
2022/07/25 11:47:28;;;;;;;4.70;3.97;;;30.10;71.70;;;;;;5096703;28;20224;-77
2022/07/25 11:49:56;;;;;;;4.03;3.63;;;30.20;71.80;;;;;;5095222;28;20184;-76
2022/07/25 11:52:33;;;;;;;5.40;4.20;;;30.30;71.70;;;;;;5095617;28;20188;-76
2022/07/25 11:55:03;;;;;;;4.93;4.18;;;30.40;71.60;;;;;;5097635;28;20179;-75
2022/07/25 11:57:34;;;;;;;4.65;4.25;;;30.50;71.30;;;;;;5098002;28;20187;-76
2022/07/25 12:00:04;;;;;;;6.72;3.90;;;30.50;71.00;;;;;;5095351;28;20180;-77
2022/07/25 12:02:32;;;;;;;17.83;4.40;;;30.50;70.90;;;;;;5094097;28;20176;-77
2022/07/25 12:05:03;;;;;;;6.03;4.25;;;30.60;71.10;;;;;;5095551;28;20180;-77
2022/07/25 12:07:48;;;;;;;6.07;4.25;;;30.60;70.90;;;;;;5099549;28;20210;-77
2022/07/25 12:10:22;;;;;;;5.82;4.40;;;30.70;71.10;;;;;;5102328;28;20252;-77
2022/07/25 12:12:55;;;;;;;4.35;3.90;;;30.70;71.50;;;;;;5096567;28;20271;-77
2022/07/25 12:15:27;;;;;;;7.22;4.10;;;30.90;71.50;;;;;;5094581;28;20189;-78
2022/07/25 12:17:54;;;;;;;5.05;4.10;;;31.10;72.20;;;;;;5098848;28;20175;-77
2022/07/25 12:20:23;;;;;;;5.03;3.95;;;31.20;71.70;;;;;;5096059;28;20192;-78
2022/07/25 12:22:52;;;;;;;4.82;3.83;;;31.40;71.40;;;;;;5096789;28;20205;-78
2022/07/25 12:25:21;;;;;;;6.43;4.32;;;31.60;71.50;;;;;;5095733;28;20202;-76
2022/07/25 12:27:48;;;;;;;5.90;4.20;;;31.80;70.90;;;;;;5095824;28;20256;-75
2022/07/25 12:30:16;;;;;;;4.47;3.75;;;32.00;70.50;;;;;;5096523;28;20206;-78
2022/07/25 12:32:42;;;;;;;4.63;3.55;;;32.10;69.70;;;;;;5096031;28;20195;-79
2022/07/25 12:35:12;;;;;;;5.43;3.55;;;32.20;69.40;;;;;;5096290;28;20232;-78
2022/07/25 12:37:41;;;;;;;4.05;3.22;;;32.40;68.90;;;;;;5095887;28;20171;-79
2022/07/25 12:40:11;;;;;;;3.63;3.33;;;32.50;68.00;;;;;;5096128;28;20190;-79
2022/07/25 12:42:40;;;;;;;4.32;3.53;;;32.60;67.20;;;;;;5095940;28;20183;-79
2022/07/25 12:45:07;;;;;;;4.13;3.72;;;32.60;66.30;;;;;;5096517;28;20190;-78
2022/07/25 12:47:35;;;;;;;8.02;3.88;;;32.60;64.20;;;;;;5097542;28;20222;-79
2022/07/25 12:50:06;;;;;;;3.50;3.20;;;32.60;63.70;;;;;;5096585;28;20175;-79
2022/07/25 12:52:33;;;;;;;4.30;3.30;;;32.60;63.80;;;;;;5097531;28;20272;-77
2022/07/25 12:54:58;;;;;;;4.47;2.92;;;32.70;63.90;;;;;;5097805;28;20194;-79